Time;durP1;ratioP1;P1;durP2;ratioP2;P2;SDS_P1;SDS_P2;PMS_P1;PMS_P2;Temp;Humidity;BMP_temperature;BMP_pressure;BME280_temperature;BME280_humidity;BME280_pressure;Samples;Min_cycle;Max_cycle;Signal;HPM_P1;HPM_P2
2022/05/26 00:00:47;;;;;;;;;;;12.40;99.90;;;;;;2603322;54;20742;31
2022/05/26 00:03:22;;;;;;;;;;;12.40;99.90;;;;;;2602848;54;19935;31
2022/05/26 00:05:56;;;;;;;;;;;12.30;99.90;;;;;;2621310;46;20512;31
2022/05/26 00:08:33;;;;;;;;;;;12.30;99.90;;;;;;2603132;54;20490;31
2022/05/26 00:11:06;;;;;;;;;;;12.30;99.90;;;;;;2602316;54;20797;31
2022/05/26 00:13:41;;;;;;;;;;;12.30;99.90;;;;;;2603067;54;20009;31
2022/05/26 00:16:18;;;;;;;;;;;12.30;99.90;;;;;;2602871;54;20009;31
2022/05/26 00:19:03;;;;;;;;;;;12.20;99.90;;;;;;2621586;46;20781;31
2022/05/26 00:21:37;;;;;;;;;;;12.20;99.90;;;;;;2621574;46;20770;31
2022/05/26 00:24:14;;;;;;;;;;;12.20;99.90;;;;;;2602270;54;20758;31
2022/05/26 00:26:49;;;;;;;;;;;12.20;99.90;;;;;;2602832;54;20682;31
2022/05/26 00:29:24;;;;;;;;;;;12.20;99.90;;;;;;2602100;54;20016;31
2022/05/26 00:32:02;;;;;;;;;;;12.10;99.90;;;;;;2621436;46;20772;31
2022/05/26 00:34:37;;;;;;;;;;;12.10;99.90;;;;;;2610705;47;20012;31
2022/05/26 00:37:11;;;;;;;;;;;12.10;99.90;;;;;;2621403;47;20017;31
2022/05/26 00:39:46;;;;;;;;;;;12.20;99.90;;;;;;2602773;54;20823;31
2022/05/26 00:42:21;;;;;;;;;;;12.10;99.90;;;;;;2602635;54;19941;31
2022/05/26 00:44:58;;;;;;;;;;;12.20;99.90;;;;;;2621336;47;20698;31
2022/05/26 00:47:36;;;;;;;;;;;12.10;99.90;;;;;;2621295;47;19941;31
2022/05/26 00:50:11;;;;;;;;;;;12.10;99.90;;;;;;2602907;54;19938;31
2022/05/26 00:52:46;;;;;;;;;;;12.20;99.90;;;;;;2719841;39;20457;31
2022/05/26 00:55:22;;;;;;;;;;;12.10;99.90;;;;;;2621452;47;19935;31
2022/05/26 00:57:58;;;;;;;;;;;12.20;99.90;;;;;;2621433;47;20831;31
2022/05/26 01:00:34;;;;;;;;;;;12.20;99.90;;;;;;2719955;39;20358;31
2022/05/26 01:03:13;;;;;;;;;;;12.20;99.90;;;;;;2621258;47;19941;31
2022/05/26 01:05:49;;;;;;;;;;;12.20;99.90;;;;;;2602726;54;20839;31
2022/05/26 01:08:26;;;;;;;;;;;12.20;99.90;;;;;;2621355;47;20751;31
2022/05/26 01:11:02;;;;;;;;;;;12.20;99.90;;;;;;2622069;46;20818;31
2022/05/26 01:13:35;;;;;;;;;;;12.20;99.90;;;;;;2602978;54;21778;31
2022/05/26 01:16:11;;;;;;;;;;;12.20;99.90;;;;;;2772689;31;20469;31
2022/05/26 01:18:50;;;;;;;;;;;12.30;99.90;;;;;;2602809;54;19943;31
2022/05/26 01:21:29;;;;;;;;;;;12.30;99.90;;;;;;2622135;46;20739;31
2022/05/26 01:24:09;;;;;;;;;;;12.30;99.90;;;;;;2603480;54;20702;31
2022/05/26 01:27:09;;;;;;;;;;;12.30;99.90;;;;;;2603326;54;19962;31
2022/05/26 01:30:00;;;;;;;;;;;12.30;99.90;;;;;;2603410;54;20657;31
2022/05/26 01:32:39;;;;;;;;;;;12.30;99.90;;;;;;2603422;54;19934;31
2022/05/26 01:35:15;;;;;;;;;;;12.30;99.90;;;;;;2603510;54;20647;31
2022/05/26 01:37:52;;;;;;;;;;;12.20;99.90;;;;;;2610970;46;19981;31
2022/05/26 01:40:27;;;;;;;;;;;12.20;99.90;;;;;;2603396;54;19978;31
2022/05/26 01:43:04;;;;;;;;;;;12.20;99.90;;;;;;2603282;54;20771;31
2022/05/26 01:45:41;;;;;;;;;;;12.20;99.90;;;;;;2603721;54;19976;31
2022/05/26 01:48:22;;;;;;;;;;;12.10;99.90;;;;;;2603315;54;20690;31
2022/05/26 01:50:58;;;;;;;;;;;12.10;99.90;;;;;;2606447;46;19935;31
2022/05/26 01:53:36;;;;;;;;;;;12.10;99.90;;;;;;2603571;54;20776;31
2022/05/26 01:56:12;;;;;;;;;;;12.10;99.90;;;;;;2621963;46;19942;31
2022/05/26 01:58:47;;;;;;;;;;;12.10;99.90;;;;;;2602439;54;19966;31
2022/05/26 02:01:25;;;;;;;;;;;12.00;99.90;;;;;;2603654;54;20704;31
2022/05/26 02:04:02;;;;;;;;;;;12.00;99.90;;;;;;2621906;46;20418;31
2022/05/26 02:06:40;;;;;;;;;;;12.00;99.90;;;;;;2603336;54;19941;31
2022/05/26 02:09:21;;;;;;;;;;;11.90;99.90;;;;;;2702247;39;20390;31
2022/05/26 02:11:57;;;;;;;;;;;11.90;99.90;;;;;;2603402;54;19985;31
2022/05/26 02:14:33;;;;;;;;;;;11.90;99.90;;;;;;2602961;54;19934;31
2022/05/26 02:17:10;;;;;;;;;;;11.80;99.90;;;;;;2621686;46;20802;31
2022/05/26 02:19:46;;;;;;;;;;;11.80;99.90;;;;;;2602309;54;20025;31
2022/05/26 02:22:21;;;;;;;;;;;11.70;99.90;;;;;;2602448;54;19950;31
2022/05/26 02:25:00;;;;;;;;;;;11.70;99.90;;;;;;2602969;54;19956;31
2022/05/26 02:27:35;;;;;;;;;;;11.70;99.90;;;;;;2621665;46;20802;31
2022/05/26 02:30:10;;;;;;;;;;;11.60;99.90;;;;;;2602668;54;19930;31
2022/05/26 02:32:45;;;;;;;;;;;11.60;99.90;;;;;;2621686;46;19935;31
2022/05/26 02:35:21;;;;;;;;;;;11.60;99.90;;;;;;2603456;54;19935;31
2022/05/26 02:37:55;;;;;;;;;;;11.50;99.90;;;;;;2602693;54;19949;31
2022/05/26 02:40:34;;;;;;;;;;;11.40;99.90;;;;;;2701870;39;20394;31
2022/05/26 02:43:10;;;;;;;;;;;11.40;99.90;;;;;;2621674;46;20005;31
2022/05/26 02:45:46;;;;;;;;;;;11.40;99.90;;;;;;2616889;46;19986;31
2022/05/26 02:48:24;;;;;;;;;;;11.40;99.90;;;;;;2621757;46;20642;31
2022/05/26 02:51:05;;;;;;;;;;;11.30;99.90;;;;;;2621691;46;21394;31
2022/05/26 02:53:45;;;;;;;;;;;11.30;99.90;;;;;;2602381;54;20822;31
2022/05/26 02:56:28;;;;;;;;;;;11.30;99.90;;;;;;2621532;46;19941;31
2022/05/26 02:59:05;;;;;;;;;;;11.20;99.90;;;;;;2603291;54;20744;31
2022/05/26 03:01:42;;;;;;;;;;;11.20;99.90;;;;;;2621483;46;20084;31
2022/05/26 03:04:17;;;;;;;;;;;11.20;99.90;;;;;;2621807;46;20767;31
2022/05/26 03:06:54;;;;;;;;;;;11.20;99.90;;;;;;2602903;54;19934;31
2022/05/26 03:09:30;;;;;;;;;;;11.10;99.90;;;;;;2602815;54;20669;31
2022/05/26 03:12:22;;;;;;;;;;;11.10;99.90;;;;;;2621735;46;19974;31
2022/05/26 03:14:58;;;;;;;;;;;11.10;99.90;;;;;;2621613;46;20005;31
2022/05/26 03:17:33;;;;;;;;;;;11.10;99.90;;;;;;2602296;54;20414;31
2022/05/26 03:20:10;;;;;;;;;;;11.10;99.90;;;;;;2621664;46;21283;31
2022/05/26 03:22:47;;;;;;;;;;;11.10;99.90;;;;;;2621774;46;19961;31
2022/05/26 03:25:24;;;;;;;;;;;11.10;99.90;;;;;;2621688;46;19934;31
2022/05/26 03:28:04;;;;;;;;;;;11.20;99.90;;;;;;2720110;39;21228;31
2022/05/26 03:30:40;;;;;;;;;;;11.20;99.90;;;;;;2621222;46;20674;31
2022/05/26 03:33:13;;;;;;;;;;;11.20;99.90;;;;;;2602706;54;19934;31
2022/05/26 03:41:21;;;;;;;;;;;11.70;99.90;;;;;;2603097;54;19935;31
2022/05/26 03:43:59;;;;;;;;;;;11.80;99.90;;;;;;2602650;54;19941;31
2022/05/26 03:46:33;;;;;;;;;;;12.00;99.90;;;;;;2602930;54;19935;31
2022/05/26 03:49:08;;;;;;;;;;;12.20;99.90;;;;;;2621690;46;20746;31
2022/05/26 03:51:43;;;;;;;;;;;12.20;99.90;;;;;;2603103;54;21258;31
2022/05/26 03:54:18;;;;;;;;;;;12.20;99.90;;;;;;2602959;54;19943;31
2022/05/26 03:56:53;;;;;;;;;;;12.20;99.90;;;;;;2603207;54;19941;31
2022/05/26 03:59:32;;;;;;;;;;;12.20;99.90;;;;;;2701726;39;20382;31
2022/05/26 04:02:08;;;;;;;;;;;12.20;99.90;;;;;;2602947;54;19934;31
2022/05/26 04:04:43;;;;;;;;;;;12.20;99.90;;;;;;2603105;54;20690;31
2022/05/26 04:07:18;;;;;;;;;;;12.20;99.90;;;;;;2602987;54;20774;31
2022/05/26 04:09:55;;;;;;;;;;;12.30;99.90;;;;;;2603203;54;19981;31
2022/05/26 04:12:30;;;;;;;;;;;12.50;99.90;;;;;;2621813;46;19939;31
2022/05/26 04:15:05;;;;;;;;;;;12.70;99.90;;;;;;2602736;54;20845;31
2022/05/26 04:17:42;;;;;;;;;;;12.80;99.90;;;;;;2603153;54;19941;31
2022/05/26 04:20:19;;;;;;;;;;;12.80;99.90;;;;;;2621370;46;19942;31
2022/05/26 04:22:54;;;;;;;;;;;13.10;99.90;;;;;;2602873;54;20667;31
2022/05/26 04:25:29;;;;;;;;;;;13.50;99.90;;;;;;2602887;54;19934;31
2022/05/26 04:28:04;;;;;;;;;;;13.80;99.90;;;;;;2621409;46;19935;31
2022/05/26 04:30:39;;;;;;;;;;;14.10;99.90;;;;;;2603024;54;19941;31
2022/05/26 04:33:17;;;;;;;;;;;14.50;99.90;;;;;;2603154;54;19957;31
2022/05/26 04:35:52;;;;;;;;;;;14.70;99.90;;;;;;2602263;54;20659;31
2022/05/26 04:38:28;;;;;;;;;;;14.80;99.90;;;;;;2619943;47;19963;31
2022/05/26 04:41:04;;;;;;;;;;;14.90;99.90;;;;;;2619366;47;20749;31
2022/05/26 04:43:39;;;;;;;;;;;15.00;99.90;;;;;;2602382;54;20681;31
2022/05/26 04:46:17;;;;;;;;;;;15.10;99.90;;;;;;2622406;46;19942;31
2022/05/26 04:48:54;;;;;;;;;;;15.10;99.90;;;;;;2603590;54;19935;31
2022/05/26 04:51:31;;;;;;;;;;;15.20;99.90;;;;;;2622446;46;20757;31
2022/05/26 04:54:06;;;;;;;;;;;15.30;99.90;;;;;;2614842;46;19934;31
2022/05/26 04:56:41;;;;;;;;;;;15.60;99.90;;;;;;2622527;46;20054;31
2022/05/26 04:59:16;;;;;;;;;;;15.90;99.90;;;;;;2622031;46;20781;31
2022/05/26 05:01:52;;;;;;;;;;;16.10;99.90;;;;;;2622330;46;20662;31
2022/05/26 05:04:30;;;;;;;;;;;16.40;99.90;;;;;;2603670;54;19941;31
2022/05/26 05:07:05;;;;;;;;;;;16.60;99.90;;;;;;2603422;54;19941;31
2022/05/26 05:09:40;;;;;;;;;;;16.80;99.90;;;;;;2622433;46;20719;31
2022/05/26 05:12:15;;;;;;;;;;;17.10;99.90;;;;;;2603056;54;19947;31
2022/05/26 05:14:52;;;;;;;;;;;17.20;99.90;;;;;;2773840;31;20500;31
2022/05/26 05:17:25;;;;;;;;;;;17.20;99.90;;;;;;2603667;54;20013;31
2022/05/26 05:20:01;;;;;;;;;;;17.20;99.90;;;;;;2603634;54;19957;31
2022/05/26 05:22:38;;;;;;;;;;;17.20;99.90;;;;;;2603828;54;20635;31
2022/05/26 05:25:15;;;;;;;;;;;17.20;99.90;;;;;;2603643;54;20004;31
2022/05/26 05:27:52;;;;;;;;;;;17.10;99.90;;;;;;2603332;54;19970;31
2022/05/26 05:30:27;;;;;;;;;;;17.10;99.90;;;;;;2622009;46;19942;31
2022/05/26 05:33:02;;;;;;;;;;;17.00;99.90;;;;;;2602951;54;20686;31
2022/05/26 05:35:41;;;;;;;;;;;17.00;99.90;;;;;;2622148;46;19994;31
2022/05/26 05:38:16;;;;;;;;;;;17.00;99.90;;;;;;2603625;54;20761;31
2022/05/26 05:40:51;;;;;;;;;;;16.90;99.90;;;;;;2602860;54;20590;31
2022/05/26 05:43:28;;;;;;;;;;;16.90;99.90;;;;;;2622167;46;20766;31
2022/05/26 05:46:03;;;;;;;;;;;16.90;99.90;;;;;;2622206;46;19941;31
2022/05/26 05:48:38;;;;;;;;;;;16.80;99.90;;;;;;2622232;46;19935;31
2022/05/26 05:51:16;;;;;;;;;;;16.80;99.90;;;;;;2603725;54;19941;31
2022/05/26 05:53:51;;;;;;;;;;;16.80;99.90;;;;;;2603668;54;19957;31
2022/05/26 05:56:26;;;;;;;;;;;16.90;99.90;;;;;;2621971;46;19950;31
2022/05/26 05:59:01;;;;;;;;;;;16.90;99.90;;;;;;2621883;46;20680;31
2022/05/26 06:01:38;;;;;;;;;;;16.90;99.90;;;;;;2622151;46;20707;31
2022/05/26 06:04:13;;;;;;;;;;;17.00;99.90;;;;;;2622308;46;19942;31
2022/05/26 06:06:51;;;;;;;;;;;17.00;99.90;;;;;;2621944;46;19950;31
2022/05/26 06:09:27;;;;;;;;;;;16.90;99.90;;;;;;2603646;54;20847;31
2022/05/26 06:12:01;;;;;;;;;;;17.00;99.90;;;;;;2603882;54;19935;31
2022/05/26 06:14:36;;;;;;;;;;;17.00;99.90;;;;;;2603598;54;19939;31
2022/05/26 06:17:11;;;;;;;;;;;17.00;99.90;;;;;;2602963;54;19950;31
2022/05/26 06:19:48;;;;;;;;;;;17.00;99.90;;;;;;2619876;46;20654;31
2022/05/26 06:22:29;;;;;;;;;;;17.10;99.90;;;;;;2621947;46;20005;31
2022/05/26 06:25:05;;;;;;;;;;;17.20;99.90;;;;;;2609946;46;20661;31
2022/05/26 06:30:30;;;;;;;;;;;17.40;99.90;;;;;;2603311;54;20009;31
2022/05/26 06:38:45;;;;;;;;;;;17.70;99.90;;;;;;2702084;39;22281;31
2022/05/26 06:44:07;;;;;;;;;;;18.00;99.90;;;;;;2622162;46;19942;31
2022/05/26 06:46:45;;;;;;;;;;;18.10;99.90;;;;;;2622036;46;19941;31
2022/05/26 06:49:20;;;;;;;;;;;18.30;99.90;;;;;;2622030;46;20732;31
2022/05/26 06:51:55;;;;;;;;;;;18.60;99.90;;;;;;2603306;54;19941;31
2022/05/26 06:54:36;;;;;;;;;;;18.80;99.90;;;;;;2621941;46;19942;31
2022/05/26 06:57:16;;;;;;;;;;;19.00;99.90;;;;;;2603491;54;19941;31
2022/05/26 07:00:00;;;;;;;;;;;19.20;99.90;;;;;;2603633;54;20724;31
2022/05/26 07:02:34;;;;;;;;;;;19.40;99.90;;;;;;2603516;54;20775;31
2022/05/26 07:05:11;;;;;;;;;;;19.50;99.90;;;;;;2621574;46;19950;31
2022/05/26 07:07:48;;;;;;;;;;;19.70;99.90;;;;;;2602774;54;20627;31
2022/05/26 07:10:35;;;;;;;;;;;19.90;99.90;;;;;;2621995;46;20698;31
2022/05/26 07:13:09;;;;;;;;;;;20.10;99.90;;;;;;2701930;39;20389;31
2022/05/26 07:15:45;;;;;;;;;;;20.30;99.90;;;;;;2603374;54;20744;31
2022/05/26 07:18:20;;;;;;;;;;;20.70;99.90;;;;;;2618326;46;20873;31
2022/05/26 07:20:55;;;;;;;;;;;20.80;99.90;;;;;;2603010;54;20014;31
2022/05/26 07:23:30;;;;;;;;;;;20.90;99.90;;;;;;2621929;46;20755;31
2022/05/26 07:26:09;;;;;;;;;;;21.20;99.90;;;;;;2621326;46;20017;31
2022/05/26 07:28:44;;;;;;;;;;;21.30;99.90;;;;;;2603238;54;19957;31
2022/05/26 07:31:22;;;;;;;;;;;21.40;99.90;;;;;;2603256;54;19990;31
2022/05/26 07:33:57;;;;;;;;;;;21.50;99.90;;;;;;2602596;54;20848;31
2022/05/26 07:42:14;;;;;;;;;;;21.50;99.90;;;;;;2603063;54;20704;31
2022/05/26 07:44:49;;;;;;;;;;;21.60;99.90;;;;;;2621729;46;19935;31
2022/05/26 07:47:26;;;;;;;;;;;21.70;99.90;;;;;;2603043;54;20009;31
2022/05/26 07:50:01;;;;;;;;;;;21.80;99.90;;;;;;2603243;54;20736;31
2022/05/26 07:55:18;;;;;;;;;;;22.00;99.90;;;;;;2603298;54;20765;31
2022/05/26 07:58:37;;;;;;;;;;;22.20;99.90;;;;;;2603044;54;20771;31
2022/05/26 08:01:13;;;;;;;;;;;22.50;99.90;;;;;;2602817;54;19935;31
2022/05/26 08:03:53;;;;;;;;;;;22.60;99.90;;;;;;2603211;54;19962;31
2022/05/26 08:06:36;;;;;;;;;;;22.70;99.90;;;;;;2603038;54;19934;31
2022/05/26 08:09:12;;;;;;;;;;;22.90;99.90;;;;;;2603236;54;20009;31
2022/05/26 08:11:47;;;;;;;;;;;23.00;99.90;;;;;;2602943;54;19969;31
2022/05/26 08:14:28;;;;;;;;;;;23.20;99.90;;;;;;2603197;54;19934;31
2022/05/26 08:17:05;;;;;;;;;;;23.30;99.90;;;;;;2602935;54;19938;31
2022/05/26 08:19:42;;;;;;;;;;;23.40;99.90;;;;;;2602578;54;20822;31
2022/05/26 08:22:20;;;;;;;;;;;23.70;99.90;;;;;;2602962;54;19934;31
2022/05/26 08:24:57;;;;;;;;;;;23.70;99.90;;;;;;2603134;54;19934;31
2022/05/26 08:27:35;;;;;;;;;;;23.80;99.90;;;;;;2602882;54;20705;31
2022/05/26 08:30:18;;;;;;;;;;;23.90;98.50;;;;;;2602871;54;19954;31
2022/05/26 08:32:58;;;;;;;;;;;23.80;96.70;;;;;;2602627;54;20768;31
2022/05/26 08:35:36;;;;;;;;;;;23.70;97.90;;;;;;2603062;54;19934;31
2022/05/26 08:38:14;;;;;;;;;;;23.70;98.50;;;;;;2602085;54;19934;31
2022/05/26 08:40:50;;;;;;;;;;;23.80;98.60;;;;;;2603019;54;19942;31
2022/05/26 08:43:29;;;;;;;;;;;23.70;98.90;;;;;;2621602;47;19993;31
2022/05/26 08:46:07;;;;;;;;;;;23.70;97.70;;;;;;2604818;47;19942;31
2022/05/26 08:48:48;;;;;;;;;;;23.80;98.30;;;;;;2602822;54;19942;31
2022/05/26 08:51:25;;;;;;;;;;;23.90;97.10;;;;;;2604792;47;19934;31
2022/05/26 08:54:10;;;;;;;;;;;24.10;97.00;;;;;;2621376;47;19935;31
2022/05/26 08:56:47;;;;;;;;;;;24.20;97.10;;;;;;2621578;47;20046;31
2022/05/26 08:59:28;;;;;;;;;;;24.40;97.80;;;;;;2621384;47;19934;31
2022/05/26 09:02:08;;;;;;;;;;;24.40;95.70;;;;;;2621337;47;20326;31
2022/05/26 09:04:47;;;;;;;;;;;24.50;97.10;;;;;;2603124;54;19956;31
2022/05/26 09:16:29;;;;;;;;;;;23.90;95.90;;;;;;2612349;47;20698;31
2022/05/26 09:19:07;;;;;;;;;;;23.70;95.90;;;;;;2602790;54;19942;31
2022/05/26 09:21:47;;;;;;;;;;;23.60;97.00;;;;;;2602644;54;20716;31
2022/05/26 09:24:26;;;;;;;;;;;23.80;96.30;;;;;;2621075;47;19977;31
2022/05/26 09:27:06;;;;;;;;;;;24.00;95.30;;;;;;2602419;54;20842;31
2022/05/26 09:29:43;;;;;;;;;;;24.40;97.10;;;;;;2602761;54;20775;31
2022/05/26 09:32:23;;;;;;;;;;;24.60;95.30;;;;;;2602691;54;19947;31
2022/05/26 09:35:11;;;;;;;;;;;24.60;95.80;;;;;;2603804;54;19982;31
2022/05/26 09:37:52;;;;;;;;;;;24.40;96.00;;;;;;2603383;54;20564;31
2022/05/26 09:40:39;;;;;;;;;;;24.00;96.20;;;;;;2603673;54;19935;31
2022/05/26 09:43:24;;;;;;;;;;;23.80;95.40;;;;;;2603573;54;19942;31
2022/05/26 09:45:59;;;;;;;;;;;23.90;96.50;;;;;;2621833;46;19935;31
2022/05/26 09:48:36;;;;;;;;;;;24.10;96.50;;;;;;2622307;46;20807;31
2022/05/26 09:51:12;;;;;;;;;;;24.10;95.70;;;;;;2603127;54;20697;31
2022/05/26 09:53:48;;;;;;;;;;;24.20;95.60;;;;;;2603579;54;19951;31
2022/05/26 09:56:38;;;;;;;;;;;24.40;96.00;;;;;;2620909;46;20490;31
2022/05/26 09:59:26;;;;;;;;;;;24.30;95.60;;;;;;2603470;54;19935;31
2022/05/26 10:02:06;;;;;;;;;;;24.30;95.80;;;;;;2603532;54;19934;31
2022/05/26 10:04:48;;;;;;;;;;;24.20;96.60;;;;;;2622206;46;20794;31
2022/05/26 10:07:23;;;;;;;;;;;24.20;96.30;;;;;;2621789;46;20508;31
2022/05/26 10:10:01;;;;;;;;;;;24.20;95.30;;;;;;2622049;46;19981;31
2022/05/26 10:12:37;;;;;;;;;;;24.10;95.40;;;;;;2603687;54;19935;31
2022/05/26 10:15:15;;;;;;;;;;;24.10;96.10;;;;;;2603360;54;19935;31
2022/05/26 10:17:58;;;;;;;;;;;24.30;94.70;;;;;;2621106;46;20821;31
2022/05/26 10:20:36;;;;;;;;;;;24.10;94.60;;;;;;2603263;54;19935;31
2022/05/26 10:23:16;;;;;;;;;;;24.00;94.90;;;;;;2720692;39;20362;31
2022/05/26 10:25:53;;;;;;;;;;;23.90;95.20;;;;;;2603406;54;19946;31
2022/05/26 10:28:39;;;;;;;;;;;23.80;94.80;;;;;;2602442;54;20511;31
2022/05/26 10:31:17;;;;;;;;;;;23.70;94.90;;;;;;2603188;54;20886;31
2022/05/26 10:34:00;;;;;;;;;;;23.70;94.80;;;;;;2603548;54;19934;31
2022/05/26 10:36:38;;;;;;;;;;;23.70;95.20;;;;;;2603318;54;19938;31
2022/05/26 10:39:21;;;;;;;;;;;23.40;95.00;;;;;;2621475;46;19935;31
2022/05/26 10:41:58;;;;;;;;;;;23.10;95.30;;;;;;2603218;54;20752;31
2022/05/26 10:44:34;;;;;;;;;;;23.00;96.70;;;;;;2603115;54;20676;31
2022/05/26 10:47:11;;;;;;;;;;;23.20;96.80;;;;;;2622022;46;19934;31
2022/05/26 10:49:50;;;;;;;;;;;23.40;97.00;;;;;;2621901;46;20781;31
2022/05/26 10:52:26;;;;;;;;;;;23.40;95.80;;;;;;2603337;54;19957;31
2022/05/26 10:55:03;;;;;;;;;;;23.60;95.50;;;;;;2602614;54;21095;31
2022/05/26 10:57:46;;;;;;;;;;;23.60;96.10;;;;;;2603169;54;19942;31
2022/05/26 11:00:27;;;;;;;;;;;23.70;96.40;;;;;;2621750;46;19958;31
2022/05/26 11:03:04;;;;;;;;;;;23.60;96.30;;;;;;2621783;46;20767;31
2022/05/26 11:05:43;;;;;;;;;;;23.30;95.80;;;;;;2621395;46;19935;31
2022/05/26 11:08:33;;;;;;;;;;;23.30;96.80;;;;;;2602548;54;19942;31
2022/05/26 11:11:08;;;;;;;;;;;23.50;96.70;;;;;;2603049;54;19946;31
2022/05/26 11:13:45;;;;;;;;;;;23.60;95.40;;;;;;2621937;46;19997;31
2022/05/26 11:19:15;;;;;;;;;;;23.60;95.50;;;;;;2603123;54;20697;31
2022/05/26 11:21:53;;;;;;;;;;;23.40;94.80;;;;;;2701686;39;20429;31
2022/05/26 11:24:28;;;;;;;;;;;23.50;95.00;;;;;;2603175;54;20773;31
2022/05/26 11:27:04;;;;;;;;;;;23.60;96.50;;;;;;2603203;54;19942;31
2022/05/26 11:29:44;;;;;;;;;;;23.70;97.20;;;;;;2603251;54;19941;31
2022/05/26 11:38:09;;;;;;;;;;;23.80;95.50;;;;;;2603170;54;19990;31
2022/05/26 11:40:43;;;;;;;;;;;23.90;96.10;;;;;;2603094;54;19934;31
2022/05/26 11:43:26;;;;;;;;;;;23.90;95.40;;;;;;2603313;54;20740;31
2022/05/26 11:46:02;;;;;;;;;;;23.80;94.20;;;;;;2621963;46;20661;31
2022/05/26 11:48:39;;;;;;;;;;;23.70;93.90;;;;;;2602906;54;19941;31
2022/05/26 11:51:29;;;;;;;;;;;23.60;94.40;;;;;;2621756;46;20486;31
2022/05/26 11:54:07;;;;;;;;;;;23.40;94.40;;;;;;2603019;54;19942;31
2022/05/26 11:56:46;;;;;;;;;;;23.20;95.00;;;;;;2602923;54;19935;31
2022/05/26 11:59:47;;;;;;;;;;;23.00;94.60;;;;;;2610021;46;21312;31
2022/05/26 12:02:39;;;;;;;;;;;22.80;94.80;;;;;;2603189;54;20494;31
2022/05/26 12:05:29;;;;;;;;;;;22.60;95.70;;;;;;2602731;54;20018;31
2022/05/26 12:08:06;;;;;;;;;;;22.60;95.00;;;;;;2621956;46;20757;31
2022/05/26 12:10:52;;;;;;;;;;;22.50;95.80;;;;;;2621762;46;20834;31
2022/05/26 12:13:32;;;;;;;;;;;22.50;96.30;;;;;;2603153;54;19942;31
2022/05/26 12:16:26;;;;;;;;;;;22.50;96.20;;;;;;2603064;54;20733;31
2022/05/26 12:19:00;;;;;;;;;;;22.60;97.30;;;;;;2602315;54;21806;31
2022/05/26 12:21:37;;;;;;;;;;;22.90;97.30;;;;;;2701044;39;20406;31
2022/05/26 12:24:30;;;;;;;;;;;23.10;95.40;;;;;;2621717;46;19938;31
2022/05/26 12:27:06;;;;;;;;;;;23.30;95.60;;;;;;2621168;46;20009;31
2022/05/26 12:30:03;;;;;;;;;;;23.60;93.40;;;;;;2603320;54;20581;31
2022/05/26 12:32:37;;;;;;;;;;;23.70;94.90;;;;;;2602731;54;20733;31
2022/05/26 12:35:14;;;;;;;;;;;23.80;94.20;;;;;;2602810;54;19938;31
2022/05/26 12:37:52;;;;;;;;;;;23.90;94.30;;;;;;2602705;54;21068;31
2022/05/26 12:40:42;;;;;;;;;;;23.90;95.40;;;;;;2720221;39;20393;31
2022/05/26 12:43:22;;;;;;;;;;;24.00;94.50;;;;;;2621424;47;20782;31
2022/05/26 12:46:02;;;;;;;;;;;24.00;94.20;;;;;;2602228;54;20665;31
2022/05/26 12:48:57;;;;;;;;;;;24.00;94.90;;;;;;2602827;54;20025;31
2022/05/26 12:51:35;;;;;;;;;;;23.90;94.10;;;;;;2602515;54;20014;31
2022/05/26 12:54:11;;;;;;;;;;;23.80;93.60;;;;;;2602677;54;20826;31
2022/05/26 12:56:49;;;;;;;;;;;23.70;94.20;;;;;;2621220;47;19941;31
2022/05/26 12:59:25;;;;;;;;;;;23.70;93.90;;;;;;2602721;54;19946;31
2022/05/26 13:02:05;;;;;;;;;;;23.60;95.40;;;;;;2621273;47;19939;31
2022/05/26 13:04:44;;;;;;;;;;;23.60;94.20;;;;;;2602746;54;19936;31
2022/05/26 13:07:19;;;;;;;;;;;23.50;93.00;;;;;;2603536;54;19943;31
2022/05/26 13:09:54;;;;;;;;;;;23.60;94.40;;;;;;2622130;46;20792;31
2022/05/26 13:12:29;;;;;;;;;;;23.60;93.40;;;;;;2603796;54;20708;31
2022/05/26 13:15:04;;;;;;;;;;;23.70;94.50;;;;;;2621889;46;19993;31
2022/05/26 13:17:49;;;;;;;;;;;23.80;92.60;;;;;;2603267;54;19946;31
2022/05/26 13:20:24;;;;;;;;;;;23.90;92.60;;;;;;2622047;46;19934;31
2022/05/26 13:23:28;;;;;;;;;;;23.90;92.70;;;;;;2603562;54;20668;31
2022/05/26 13:26:03;;;;;;;;;;;24.00;94.10;;;;;;2603435;54;19934;31
2022/05/26 13:28:38;;;;;;;;;;;24.00;94.30;;;;;;2602984;54;19934;31
2022/05/26 13:34:17;;;;;;;;;;;24.10;93.70;;;;;;2622209;46;19939;31
2022/05/26 13:36:52;;;;;;;;;;;24.00;92.20;;;;;;2622016;46;21210;31
2022/05/26 13:39:28;;;;;;;;;;;23.90;92.70;;;;;;2702247;39;20467;31
2022/05/26 13:42:03;;;;;;;;;;;23.80;93.30;;;;;;2702220;39;21319;31
2022/05/26 13:44:39;;;;;;;;;;;23.70;92.40;;;;;;2603607;54;19981;31
2022/05/26 13:47:14;;;;;;;;;;;23.50;93.00;;;;;;2603689;54;19935;31
2022/05/26 13:50:01;;;;;;;;;;;23.40;92.90;;;;;;2621867;46;20774;31
2022/05/26 13:55:18;;;;;;;;;;;23.40;94.30;;;;;;2603272;54;19985;31
2022/05/26 13:57:53;;;;;;;;;;;23.40;93.20;;;;;;2603403;54;19935;31
2022/05/26 14:00:32;;;;;;;;;;;23.40;91.60;;;;;;2603316;54;19943;31
2022/05/26 14:03:09;;;;;;;;;;;23.20;92.00;;;;;;2621844;46;19942;31
2022/05/26 14:06:00;;;;;;;;;;;23.10;92.60;;;;;;2613329;46;20527;31
2022/05/26 14:08:39;;;;;;;;;;;23.10;93.30;;;;;;2603408;54;20017;31
2022/05/26 14:11:27;;;;;;;;;;;23.00;92.70;;;;;;2622157;46;19990;31
2022/05/26 14:14:03;;;;;;;;;;;22.90;92.20;;;;;;2603446;54;19958;31
2022/05/26 14:16:41;;;;;;;;;;;22.70;92.40;;;;;;2602672;54;19934;31
2022/05/26 14:19:16;;;;;;;;;;;22.50;93.30;;;;;;2603296;54;19941;31
2022/05/26 14:21:54;;;;;;;;;;;22.50;94.00;;;;;;2622168;46;19941;31
2022/05/26 14:24:38;;;;;;;;;;;22.50;93.90;;;;;;2603292;54;19935;31
2022/05/26 14:27:19;;;;;;;;;;;22.50;94.00;;;;;;2603610;54;20650;31
2022/05/26 14:29:54;;;;;;;;;;;22.60;94.40;;;;;;2602621;54;20518;31
2022/05/26 14:32:34;;;;;;;;;;;22.60;93.70;;;;;;2621700;46;20013;31
2022/05/26 14:35:14;;;;;;;;;;;22.50;94.40;;;;;;2603586;54;19941;31
2022/05/26 14:37:52;;;;;;;;;;;22.50;94.50;;;;;;2606788;46;19934;31
2022/05/26 14:40:33;;;;;;;;;;;22.50;94.60;;;;;;2603269;54;19942;31
2022/05/26 14:43:15;;;;;;;;;;;22.40;93.70;;;;;;2603506;54;20754;31
2022/05/26 14:45:50;;;;;;;;;;;22.20;94.50;;;;;;2620889;46;20815;31
2022/05/26 14:48:25;;;;;;;;;;;22.10;93.80;;;;;;2602478;54;20669;31
2022/05/26 14:51:01;;;;;;;;;;;22.00;94.50;;;;;;2603251;54;20849;31
2022/05/26 14:56:34;;;;;;;;;;;22.10;95.00;;;;;;2602693;54;19934;31
2022/05/26 14:59:10;;;;;;;;;;;22.10;95.10;;;;;;2621471;46;19946;31
2022/05/26 15:01:48;;;;;;;;;;;22.20;95.50;;;;;;2621946;46;20762;31
2022/05/26 15:04:24;;;;;;;;;;;22.30;95.20;;;;;;2603255;54;20736;31
2022/05/26 15:07:00;;;;;;;;;;;22.30;94.90;;;;;;2602421;54;19981;31
2022/05/26 15:09:34;;;;;;;;;;;22.20;95.00;;;;;;2622110;46;19935;31
2022/05/26 15:12:14;;;;;;;;;;;22.10;95.40;;;;;;2603198;54;20786;31
2022/05/26 15:14:49;;;;;;;;;;;22.10;95.70;;;;;;2606779;46;19935;31
2022/05/26 15:17:24;;;;;;;;;;;22.00;95.30;;;;;;2603190;54;20786;31
2022/05/26 15:20:05;;;;;;;;;;;21.90;95.10;;;;;;2621706;46;20008;31
2022/05/26 15:22:43;;;;;;;;;;;21.90;95.20;;;;;;2603185;54;20781;31
2022/05/26 15:25:20;;;;;;;;;;;21.70;94.60;;;;;;2621491;46;19935;31
2022/05/26 15:28:01;;;;;;;;;;;21.70;95.70;;;;;;2621255;46;22292;31
2022/05/26 15:30:36;;;;;;;;;;;21.60;95.20;;;;;;2621919;46;20813;31
2022/05/26 15:33:10;;;;;;;;;;;21.60;95.80;;;;;;2603344;54;20658;31
2022/05/26 15:35:44;;;;;;;;;;;21.50;96.30;;;;;;2603115;54;19935;31
2022/05/26 15:38:20;;;;;;;;;;;21.40;96.70;;;;;;2621555;46;19942;31
2022/05/26 15:40:58;;;;;;;;;;;21.40;96.10;;;;;;2602477;54;20907;31
2022/05/26 15:43:35;;;;;;;;;;;21.30;96.20;;;;;;2621714;46;20776;31
2022/05/26 15:46:10;;;;;;;;;;;21.30;96.40;;;;;;2603003;54;19934;31
2022/05/26 15:48:46;;;;;;;;;;;21.20;96.80;;;;;;2602530;54;19942;31
2022/05/26 15:51:20;;;;;;;;;;;21.20;96.70;;;;;;2602629;54;19935;31
2022/05/26 15:53:54;;;;;;;;;;;21.10;96.90;;;;;;2621443;46;19942;31
2022/05/26 15:56:29;;;;;;;;;;;21.20;97.00;;;;;;2621658;46;20828;31
2022/05/26 15:59:07;;;;;;;;;;;21.20;97.40;;;;;;2603149;54;20767;31
2022/05/26 16:01:45;;;;;;;;;;;21.20;97.50;;;;;;2621643;46;20512;31
2022/05/26 16:04:21;;;;;;;;;;;21.20;96.80;;;;;;2603177;54;19934;31
2022/05/26 16:06:56;;;;;;;;;;;21.20;96.80;;;;;;2602486;54;20791;31
2022/05/26 16:09:32;;;;;;;;;;;21.20;97.70;;;;;;2602368;54;20513;31
2022/05/26 16:12:08;;;;;;;;;;;21.20;97.10;;;;;;2621579;46;20784;31
2022/05/26 16:14:49;;;;;;;;;;;21.20;97.40;;;;;;2720074;39;20430;31
2022/05/26 16:17:28;;;;;;;;;;;21.20;97.40;;;;;;2602561;54;20069;31
2022/05/26 16:20:02;;;;;;;;;;;21.10;98.00;;;;;;2621547;46;20816;31
2022/05/26 16:22:40;;;;;;;;;;;21.10;97.90;;;;;;2619709;46;19965;31
2022/05/26 16:25:14;;;;;;;;;;;21.10;98.20;;;;;;2602969;54;22366;31